Time;durP1;ratioP1;P1;durP2;ratioP2;P2;SDS_P1;SDS_P2;PMS_P1;PMS_P2;Temp;Humidity;BMP_temperature;BMP_pressure;BME280_temperature;BME280_humidity;BME280_pressure;Samples;Min_cycle;Max_cycle;Signal;HPM_P1;HPM_P2
2023/07/25 00:01:10;;;;;;;;;;;20.20;82.60;;;;;;4170824;28;19931;-45
2023/07/25 00:03:52;;;;;;;;;;;20.20;83.50;;;;;;4171347;28;19931;-50
2023/07/25 00:06:33;;;;;;;;;;;20.20;82.60;;;;;;4170681;28;19951;-45
2023/07/25 00:09:13;;;;;;;;;;;20.30;82.60;;;;;;4157368;28;19971;-45
2023/07/25 00:11:54;;;;;;;;;;;20.20;82.60;;;;;;4155836;28;20059;-48
2023/07/25 00:14:35;;;;;;;;;;;20.20;82.50;;;;;;4154738;28;19932;-46
2023/07/25 00:17:16;;;;;;;;;;;20.20;82.50;;;;;;4154384;28;19936;-46
2023/07/25 00:19:58;;;;;;;;;;;20.20;82.50;;;;;;4154557;28;19932;-46
2023/07/25 00:22:39;;;;;;;;;;;20.20;82.50;;;;;;4163351;28;19986;-49
2023/07/25 00:25:20;;;;;;;;;;;20.20;82.50;;;;;;4170831;28;19947;-47
2023/07/25 00:28:01;;;;;;;;;;;20.20;82.50;;;;;;4170452;28;19979;-47
2023/07/25 00:30:41;;;;;;;;;;;20.20;83.40;;;;;;4170163;28;19932;-49
2023/07/25 00:33:22;;;;;;;;;;;20.10;82.50;;;;;;4170482;28;19978;-47
2023/07/25 00:36:04;;;;;;;;;;;20.10;82.50;;;;;;4187256;28;20425;-48
2023/07/25 00:38:45;;;;;;;;;;;20.10;82.50;;;;;;4166547;28;19978;-50
2023/07/25 00:41:26;;;;;;;;;;;20.10;82.50;;;;;;4142723;28;19936;-47
2023/07/25 00:44:07;;;;;;;;;;;20.10;82.50;;;;;;4153564;28;19936;-50
2023/07/25 00:46:48;;;;;;;;;;;20.10;82.50;;;;;;4157746;28;20063;-54
2023/07/25 00:49:30;;;;;;;;;;;20.10;82.50;;;;;;4170235;28;20311;-54
2023/07/25 00:52:12;;;;;;;;;;;20.10;82.50;;;;;;4158331;28;19955;-55
2023/07/25 00:54:53;;;;;;;;;;;20.10;82.40;;;;;;4154741;28;19932;-54
2023/07/25 00:57:34;;;;;;;;;;;20.10;82.40;;;;;;4158759;28;19936;-52
2023/07/25 01:00:15;;;;;;;;;;;20.10;82.30;;;;;;4155039;28;19979;-51
2023/07/25 01:02:55;;;;;;;;;;;20.10;82.30;;;;;;4167637;28;19931;-50
2023/07/25 01:05:39;;;;;;;;;;;20.10;82.30;;;;;;4170475;28;19936;-51
2023/07/25 01:08:21;;;;;;;;;;;20.10;82.30;;;;;;4169151;28;19994;-51
2023/07/25 01:11:02;;;;;;;;;;;20.10;82.30;;;;;;4166271;28;19973;-54
2023/07/25 01:13:44;;;;;;;;;;;20.00;82.20;;;;;;4166371;28;19932;-54
2023/07/25 01:16:26;;;;;;;;;;;20.00;82.20;;;;;;4185654;28;19935;-53
2023/07/25 01:19:07;;;;;;;;;;;20.00;83.00;;;;;;4186851;28;19931;-53
2023/07/25 01:21:48;;;;;;;;;;;20.00;82.10;;;;;;4185358;28;20267;-52
2023/07/25 01:24:30;;;;;;;;;;;20.00;82.10;;;;;;4156054;28;19932;-55
2023/07/25 01:27:11;;;;;;;;;;;20.00;82.10;;;;;;4170147;28;19935;-56
2023/07/25 01:29:52;;;;;;;;;;;20.00;82.10;;;;;;4151627;28;19936;-55
2023/07/25 01:32:33;;;;;;;;;;;20.00;82.10;;;;;;4157828;28;19932;-53
2023/07/25 01:35:14;;;;;;;;;;;20.00;82.10;;;;;;4155878;28;19935;-56
2023/07/25 01:37:55;;;;;;;;;;;19.90;82.00;;;;;;4164486;28;20404;-55
2023/07/25 01:40:39;;;;;;;;;;;19.90;82.00;;;;;;4152513;28;19933;-54
2023/07/25 01:43:19;;;;;;;;;;;19.90;81.90;;;;;;4192509;28;20391;-57
2023/07/25 01:46:01;;;;;;;;;;;19.90;82.00;;;;;;4185722;28;20066;-57
2023/07/25 01:48:42;;;;;;;;;;;19.90;81.90;;;;;;4173891;28;20017;-56
2023/07/25 01:51:22;;;;;;;;;;;19.90;81.90;;;;;;4186213;28;19931;-57
2023/07/25 01:54:03;;;;;;;;;;;19.90;81.90;;;;;;4179325;28;19932;-56
2023/07/25 01:56:45;;;;;;;;;;;19.90;81.90;;;;;;4151647;28;19935;-56
2023/07/25 01:59:29;;;;;;;;;;;19.90;81.90;;;;;;4162456;28;20268;-52
2023/07/25 02:02:10;;;;;;;;;;;19.90;82.00;;;;;;4145160;28;20047;-54
2023/07/25 02:04:51;;;;;;;;;;;19.90;82.00;;;;;;4156606;28;19940;-55
2023/07/25 02:07:32;;;;;;;;;;;19.80;82.00;;;;;;4169750;28;20067;-52
2023/07/25 02:10:14;;;;;;;;;;;19.80;81.90;;;;;;4154656;28;19936;-52
2023/07/25 02:12:56;;;;;;;;;;;19.80;82.00;;;;;;4152112;28;20347;-57
2023/07/25 02:15:38;;;;;;;;;;;19.80;82.00;;;;;;4161048;28;19981;-57
2023/07/25 02:18:18;;;;;;;;;;;19.80;82.00;;;;;;4171173;28;19932;-55
2023/07/25 02:20:59;;;;;;;;;;;19.80;82.00;;;;;;4160314;28;19947;-53
2023/07/25 02:23:40;;;;;;;;;;;19.80;82.00;;;;;;4158427;28;20141;-57
2023/07/25 02:26:21;;;;;;;;;;;19.80;82.00;;;;;;4165710;28;20043;-56
2023/07/25 02:29:03;;;;;;;;;;;19.80;82.00;;;;;;4172912;28;19932;-55
2023/07/25 02:31:44;;;;;;;;;;;19.80;82.00;;;;;;4172286;28;20530;-57
2023/07/25 02:34:25;;;;;;;;;;;19.80;82.10;;;;;;4172968;28;19932;-55
2023/07/25 02:37:06;;;;;;;;;;;19.80;82.00;;;;;;4140782;28;19944;-55
2023/07/25 02:39:47;;;;;;;;;;;19.70;82.00;;;;;;4154425;28;19936;-57
2023/07/25 02:42:28;;;;;;;;;;;19.80;82.10;;;;;;4168410;28;19932;-55
2023/07/25 02:45:11;;;;;;;;;;;19.70;82.10;;;;;;4169390;28;19951;-56
2023/07/25 02:47:51;;;;;;;;;;;19.70;82.10;;;;;;4171792;28;19936;-52
2023/07/25 02:50:32;;;;;;;;;;;19.70;82.10;;;;;;4153454;28;20465;-55
2023/07/25 02:53:13;;;;;;;;;;;19.80;82.20;;;;;;4154003;28;20174;-55
2023/07/25 02:55:54;;;;;;;;;;;19.70;82.10;;;;;;4142531;28;19936;-54
2023/07/25 02:58:35;;;;;;;;;;;19.70;82.10;;;;;;4144749;28;20154;-53
2023/07/25 03:01:17;;;;;;;;;;;19.70;82.10;;;;;;4182647;28;19932;-56
2023/07/25 03:03:58;;;;;;;;;;;19.70;82.10;;;;;;4157425;28;20061;-51
2023/07/25 03:06:38;;;;;;;;;;;19.70;82.10;;;;;;4155462;28;20064;-55
2023/07/25 03:09:19;;;;;;;;;;;19.70;82.10;;;;;;4172124;28;20264;-54
2023/07/25 03:12:00;;;;;;;;;;;19.70;82.10;;;;;;4159840;28;19978;-54
2023/07/25 03:14:41;;;;;;;;;;;19.70;82.10;;;;;;4175542;28;20280;-55
2023/07/25 03:17:24;;;;;;;;;;;19.70;82.10;;;;;;4170248;28;19935;-54
2023/07/25 03:20:05;;;;;;;;;;;19.70;82.10;;;;;;4172142;28;19932;-52
2023/07/25 03:22:46;;;;;;;;;;;19.70;82.10;;;;;;4158234;28;19978;-54
2023/07/25 03:25:27;;;;;;;;;;;19.70;82.10;;;;;;4170911;28;20339;-50
2023/07/25 03:28:08;;;;;;;;;;;19.70;82.10;;;;;;4155197;28;20089;-53
2023/07/25 03:30:48;;;;;;;;;;;19.70;82.10;;;;;;4165809;28;20295;-53
2023/07/25 03:33:31;;;;;;;;;;;19.70;82.10;;;;;;4153566;28;20384;-55
2023/07/25 03:36:12;;;;;;;;;;;19.70;82.10;;;;;;4159038;28;20409;-54
2023/07/25 03:38:52;;;;;;;;;;;19.70;82.10;;;;;;4155785;28;19997;-56
2023/07/25 03:41:33;;;;;;;;;;;19.70;82.10;;;;;;4148903;28;19931;-55
2023/07/25 03:44:17;;;;;;;;;;;19.70;82.10;;;;;;4143184;28;20022;-55
2023/07/25 03:46:57;;;;;;;;;;;19.70;82.10;;;;;;4152753;28;19999;-53
2023/07/25 03:49:40;;;;;;;;;;;19.70;82.10;;;;;;4159309;28;19936;-55
2023/07/25 03:52:21;;;;;;;;;;;19.70;82.10;;;;;;4171720;28;20391;-55
2023/07/25 03:55:02;;;;;;;;;;;19.70;82.20;;;;;;4169671;28;19936;-54
2023/07/25 03:57:43;;;;;;;;;;;19.60;82.10;;;;;;4153187;28;20285;-55
2023/07/25 04:00:24;;;;;;;;;;;19.70;82.20;;;;;;4155063;28;19935;-54
2023/07/25 04:03:04;;;;;;;;;;;19.60;82.10;;;;;;4143298;28;19932;-54
2023/07/25 04:05:56;;;;;;;;;;;19.60;82.10;;;;;;4142498;28;19990;-54
2023/07/25 04:08:36;;;;;;;;;;;19.60;82.10;;;;;;4153883;28;19932;-53
2023/07/25 04:11:17;;;;;;;;;;;19.60;82.00;;;;;;4154838;28;20022;-56
2023/07/25 04:13:58;;;;;;;;;;;19.60;82.10;;;;;;4171693;28;19935;-53
2023/07/25 04:16:39;;;;;;;;;;;19.60;82.20;;;;;;4169925;28;19973;-55
2023/07/25 04:19:20;;;;;;;;;;;19.60;82.20;;;;;;4164287;28;20299;-52
2023/07/25 04:22:02;;;;;;;;;;;19.60;82.30;;;;;;4156587;28;19936;-56
2023/07/25 04:24:42;;;;;;;;;;;19.60;82.30;;;;;;4170673;28;19971;-56
2023/07/25 04:27:23;;;;;;;;;;;19.60;83.20;;;;;;4157154;28;20467;-55
2023/07/25 04:30:05;;;;;;;;;;;19.60;82.60;;;;;;4141251;28;19936;-55
2023/07/25 04:32:45;;;;;;;;;;;19.60;82.80;;;;;;4154827;28;20445;-54
2023/07/25 04:35:27;;;;;;;;;;;19.60;82.80;;;;;;4170908;28;20433;-56
2023/07/25 04:38:09;;;;;;;;;;;19.60;82.80;;;;;;4186882;28;19931;-57
2023/07/25 04:40:49;;;;;;;;;;;19.60;82.70;;;;;;4186903;28;19935;-57
2023/07/25 04:43:30;;;;;;;;;;;19.60;82.80;;;;;;4174440;28;19935;-56
2023/07/25 04:46:11;;;;;;;;;;;19.60;82.80;;;;;;4141992;28;20048;-57
2023/07/25 04:48:52;;;;;;;;;;;19.60;82.90;;;;;;4164790;28;19932;-56
2023/07/25 04:51:33;;;;;;;;;;;19.60;82.90;;;;;;4155138;28;19936;-52
2023/07/25 04:54:16;;;;;;;;;;;19.60;83.00;;;;;;4169560;28;19936;-53
2023/07/25 04:56:56;;;;;;;;;;;19.60;83.00;;;;;;4156785;28;19936;-54
2023/07/25 04:59:39;;;;;;;;;;;19.60;83.00;;;;;;4145562;28;19932;-53
2023/07/25 05:02:20;;;;;;;;;;;19.60;83.00;;;;;;4169510;28;19932;-58
2023/07/25 05:05:01;;;;;;;;;;;19.60;83.00;;;;;;4170293;28;20438;-55
2023/07/25 05:07:43;;;;;;;;;;;19.60;83.10;;;;;;4170399;28;20429;-54
2023/07/25 05:10:25;;;;;;;;;;;19.60;83.10;;;;;;4161602;28;20075;-55
2023/07/25 05:13:06;;;;;;;;;;;19.60;83.00;;;;;;4170119;28;19952;-54
2023/07/25 05:15:46;;;;;;;;;;;19.60;83.10;;;;;;4170363;28;19946;-55
2023/07/25 05:18:27;;;;;;;;;;;19.60;83.00;;;;;;4170167;28;20413;-53
2023/07/25 05:21:08;;;;;;;;;;;19.70;83.00;;;;;;4170000;28;19935;-53
2023/07/25 05:23:48;;;;;;;;;;;19.70;82.90;;;;;;4186747;28;19935;-55
2023/07/25 05:26:30;;;;;;;;;;;19.60;82.80;;;;;;4171460;28;19978;-55
2023/07/25 05:29:12;;;;;;;;;;;19.70;82.80;;;;;;4166164;28;19935;-54
2023/07/25 05:31:52;;;;;;;;;;;19.70;82.80;;;;;;4170014;28;19932;-51
2023/07/25 05:34:33;;;;;;;;;;;19.60;82.70;;;;;;4169345;28;20406;-54
2023/07/25 05:37:14;;;;;;;;;;;19.70;82.80;;;;;;4153617;28;20058;-54
2023/07/25 05:39:55;;;;;;;;;;;19.70;82.70;;;;;;4153696;28;19936;-51
2023/07/25 05:42:37;;;;;;;;;;;19.70;82.70;;;;;;4153478;28;19935;-47
2023/07/25 05:45:18;;;;;;;;;;;19.70;82.60;;;;;;4152780;28;19955;-45
2023/07/25 05:47:59;;;;;;;;;;;19.70;82.50;;;;;;4168335;28;19940;-48
2023/07/25 05:50:40;;;;;;;;;;;19.80;82.50;;;;;;4172444;28;20403;-46
2023/07/25 05:53:21;;;;;;;;;;;19.80;83.30;;;;;;4156253;28;20391;-48
2023/07/25 05:56:02;;;;;;;;;;;19.80;82.50;;;;;;4156641;28;19936;-46
2023/07/25 05:58:43;;;;;;;;;;;19.80;82.40;;;;;;4159200;28;19931;-44
2023/07/25 06:01:24;;;;;;;;;;;19.90;82.20;;;;;;4173145;28;20120;-46
2023/07/25 06:04:05;;;;;;;;;;;19.90;81.90;;;;;;4157496;28;20056;-46
2023/07/25 06:06:46;;;;;;;;;;;20.00;81.70;;;;;;4159476;28;19935;-47
2023/07/25 06:09:27;;;;;;;;;;;20.00;81.30;;;;;;4172047;28;20398;-44
2023/07/25 06:12:08;;;;;;;;;;;20.10;80.90;;;;;;4172190;28;19936;-51
2023/07/25 06:14:51;;;;;;;;;;;20.20;80.40;;;;;;4180035;28;19936;-48
2023/07/25 06:17:32;;;;;;;;;;;20.20;79.80;;;;;;4172540;28;19951;-54
2023/07/25 06:20:13;;;;;;;;;;;20.30;79.40;;;;;;4158183;28;19936;-51
2023/07/25 06:22:54;;;;;;;;;;;20.40;78.90;;;;;;4172099;28;19936;-52
2023/07/25 06:25:34;;;;;;;;;;;20.40;78.40;;;;;;4176441;28;19974;-59
2023/07/25 06:28:16;;;;;;;;;;;20.50;78.00;;;;;;4161127;28;19932;-53
2023/07/25 06:31:02;;;;;;;;;;;20.60;77.70;;;;;;4172771;28;19951;-54
2023/07/25 06:33:43;;;;;;;;;;;20.60;77.10;;;;;;4163907;28;19932;-55
2023/07/25 06:36:24;;;;;;;;;;;20.60;76.70;;;;;;4172235;28;19936;-53
2023/07/25 06:39:04;;;;;;;;;;;20.70;76.50;;;;;;4189163;28;19947;-54
2023/07/25 06:41:45;;;;;;;;;;;20.70;77.00;;;;;;4174015;28;19993;-54
2023/07/25 06:44:29;;;;;;;;;;;20.70;76.00;;;;;;4135507;28;19936;-52
2023/07/25 06:47:12;;;;;;;;;;;20.70;75.70;;;;;;4156378;28;20070;-55
2023/07/25 06:49:52;;;;;;;;;;;20.80;75.50;;;;;;4171763;28;19975;-54
2023/07/25 06:52:33;;;;;;;;;;;20.80;75.30;;;;;;4159630;28;19936;-54
2023/07/25 06:55:15;;;;;;;;;;;20.80;75.10;;;;;;4161707;28;20411;-54
2023/07/25 06:57:56;;;;;;;;;;;20.80;75.80;;;;;;4172412;28;19931;-53
2023/07/25 07:00:37;;;;;;;;;;;20.80;74.60;;;;;;4170627;28;19936;-55
2023/07/25 07:03:19;;;;;;;;;;;20.90;74.50;;;;;;4171021;28;20375;-55
2023/07/25 07:06:01;;;;;;;;;;;20.90;75.00;;;;;;4161171;28;19978;-55
2023/07/25 07:08:41;;;;;;;;;;;21.00;73.80;;;;;;4143646;28;19978;-50
2023/07/25 07:11:22;;;;;;;;;;;21.00;73.40;;;;;;4154508;28;20454;-54
2023/07/25 07:14:03;;;;;;;;;;;21.00;73.10;;;;;;4154463;28;20075;-55
2023/07/25 07:16:44;;;;;;;;;;;21.10;72.80;;;;;;4171178;28;20146;-55
2023/07/25 07:19:25;;;;;;;;;;;21.10;72.30;;;;;;4170886;28;20390;-56
2023/07/25 07:22:06;;;;;;;;;;;21.10;71.90;;;;;;4161197;28;19932;-52
2023/07/25 07:24:47;;;;;;;;;;;21.20;71.60;;;;;;4167182;28;19948;-55
2023/07/25 07:27:29;;;;;;;;;;;21.20;71.70;;;;;;4158850;28;19936;-55
2023/07/25 07:30:10;;;;;;;;;;;21.20;71.80;;;;;;4158367;28;19943;-55
2023/07/25 07:32:51;;;;;;;;;;;21.20;71.80;;;;;;4168495;28;19974;-54
2023/07/25 07:35:33;;;;;;;;;;;21.20;71.40;;;;;;4170317;28;20039;-55
2023/07/25 07:38:14;;;;;;;;;;;21.30;70.80;;;;;;4175896;28;19932;-55
2023/07/25 07:40:54;;;;;;;;;;;21.30;70.60;;;;;;4188086;28;19935;-53
2023/07/25 07:43:36;;;;;;;;;;;21.20;70.60;;;;;;4186941;28;19949;-53
2023/07/25 07:46:17;;;;;;;;;;;21.30;70.10;;;;;;4155011;28;20434;-55
2023/07/25 07:48:58;;;;;;;;;;;21.20;70.80;;;;;;4155453;28;20090;-54
2023/07/25 07:51:40;;;;;;;;;;;21.20;69.40;;;;;;4153809;28;19931;-51
2023/07/25 07:54:21;;;;;;;;;;;21.20;69.00;;;;;;4187388;28;20390;-54
2023/07/25 07:57:01;;;;;;;;;;;21.20;69.20;;;;;;4177641;28;19948;-53
2023/07/25 07:59:44;;;;;;;;;;;21.20;69.40;;;;;;4171446;28;19935;-53
2023/07/25 08:02:24;;;;;;;;;;;21.20;69.40;;;;;;4157046;28;19936;-56
2023/07/25 08:05:06;;;;;;;;;;;21.20;69.30;;;;;;4170752;28;19955;-55
2023/07/25 08:07:48;;;;;;;;;;;21.20;69.20;;;;;;4171511;28;19936;-54
2023/07/25 08:10:29;;;;;;;;;;;21.20;68.90;;;;;;4154874;28;19952;-53
2023/07/25 08:13:09;;;;;;;;;;;21.20;68.80;;;;;;4152198;28;19936;-53
2023/07/25 08:15:50;;;;;;;;;;;21.10;69.00;;;;;;4154554;28;19936;-54
2023/07/25 08:18:31;;;;;;;;;;;21.10;69.00;;;;;;4154235;28;20371;-48
2023/07/25 08:21:12;;;;;;;;;;;21.10;68.40;;;;;;4164833;28;19932;-46
2023/07/25 08:23:54;;;;;;;;;;;21.10;67.30;;;;;;4148112;28;19937;-50
2023/07/25 08:26:35;;;;;;;;;;;21.10;66.30;;;;;;4183307;28;19932;-51
2023/07/25 08:29:16;;;;;;;;;;;21.10;66.80;;;;;;4170069;28;19936;-48
2023/07/25 08:31:57;;;;;;;;;;;21.10;67.20;;;;;;4161534;28;19946;-50
2023/07/25 08:34:38;;;;;;;;;;;21.10;67.60;;;;;;4166198;28;19936;-48
2023/07/25 08:37:19;;;;;;;;;;;21.10;67.50;;;;;;4153604;28;19947;-48
2023/07/25 08:40:02;;;;;;;;;;;21.00;67.50;;;;;;4131243;28;19935;-50
2023/07/25 08:42:43;;;;;;;;;;;21.00;67.50;;;;;;4140915;28;19932;-48
2023/07/25 08:45:24;;;;;;;;;;;21.00;67.80;;;;;;4163357;28;19935;-47
2023/07/25 08:48:07;;;;;;;;;;;21.00;69.00;;;;;;4170336;28;19932;-47
2023/07/25 08:50:52;;;;;;;;;;;21.00;67.80;;;;;;4175380;28;20514;-47
2023/07/25 08:53:33;;;;;;;;;;;21.00;67.10;;;;;;4158216;28;19931;-45
2023/07/25 08:56:15;;;;;;;;;;;21.00;66.80;;;;;;4168836;28;19936;-51
2023/07/25 08:58:56;;;;;;;;;;;21.00;67.70;;;;;;4170581;28;19932;-55
2023/07/25 09:01:38;;;;;;;;;;;21.00;68.40;;;;;;4168579;28;19982;-52
2023/07/25 09:04:19;;;;;;;;;;;21.10;66.80;;;;;;4169396;28;19935;-56
2023/07/25 09:07:01;;;;;;;;;;;21.10;66.30;;;;;;4169631;28;19994;-55
2023/07/25 09:09:42;;;;;;;;;;;21.10;66.50;;;;;;4153922;28;19932;-55
2023/07/25 09:12:24;;;;;;;;;;;21.10;66.50;;;;;;4139514;28;20396;-53
2023/07/25 09:15:06;;;;;;;;;;;21.10;65.90;;;;;;4169195;28;19932;-52
2023/07/25 09:17:46;;;;;;;;;;;21.10;67.00;;;;;;4168932;28;20510;-56
2023/07/25 09:20:28;;;;;;;;;;;21.10;66.40;;;;;;4144459;28;19940;-56
2023/07/25 09:23:08;;;;;;;;;;;21.10;66.40;;;;;;4161186;28;20779;-48
2023/07/25 09:25:50;;;;;;;;;;;21.20;67.70;;;;;;4168176;28;19950;-56
2023/07/25 09:28:32;;;;;;;;;;;21.20;66.40;;;;;;4167746;28;20383;-54
2023/07/25 09:31:13;;;;;;;;;;;21.20;66.20;;;;;;4173045;28;20303;-55
2023/07/25 09:33:56;;;;;;;;;;;21.20;66.20;;;;;;4163249;28;19932;-53
2023/07/25 09:36:38;;;;;;;;;;;21.20;66.30;;;;;;4165868;28;20015;-55
2023/07/25 09:39:20;;;;;;;;;;;21.20;65.90;;;;;;4156648;28;19932;-54
2023/07/25 09:42:01;;;;;;;;;;;21.30;66.20;;;;;;4143592;28;19932;-51
2023/07/25 09:44:47;;;;;;;;;;;21.30;64.80;;;;;;4155868;28;19933;-54
2023/07/25 09:47:29;;;;;;;;;;;21.30;65.90;;;;;;4169253;28;20033;-55
2023/07/25 09:50:10;;;;;;;;;;;21.30;65.70;;;;;;4172650;28;20299;-55
2023/07/25 09:52:51;;;;;;;;;;;21.30;66.20;;;;;;4172551;28;19932;-55
2023/07/25 09:55:32;;;;;;;;;;;21.30;64.80;;;;;;4162454;28;19936;-54
2023/07/25 09:58:13;;;;;;;;;;;21.40;65.50;;;;;;4173035;28;19936;-51
2023/07/25 10:00:56;;;;;;;;;;;21.40;65.00;;;;;;4159021;28;19954;-55
2023/07/25 10:03:38;;;;;;;;;;;21.30;64.30;;;;;;4157697;28;20062;-54
2023/07/25 10:06:19;;;;;;;;;;;21.30;64.70;;;;;;4170317;28;19932;-56
2023/07/25 10:09:01;;;;;;;;;;;21.40;64.60;;;;;;4158317;28;19932;-50
2023/07/25 10:11:42;;;;;;;;;;;21.40;65.20;;;;;;4170680;28;20460;-48
2023/07/25 10:14:23;;;;;;;;;;;21.40;65.10;;;;;;4158751;28;19935;-46
2023/07/25 10:17:07;;;;;;;;;;;21.40;64.60;;;;;;4171873;28;19948;-47
2023/07/25 10:19:49;;;;;;;;;;;21.40;64.50;;;;;;4165074;28;20426;-50
2023/07/25 10:22:37;;;;;;;;;;;21.40;64.80;;;;;;4142152;28;19935;-48
2023/07/25 10:25:22;;;;;;;;;;;21.40;64.70;;;;;;4140412;28;20019;-47
2023/07/25 10:28:03;;;;;;;;;;;21.40;64.80;;;;;;4148715;28;19979;-48
2023/07/25 10:30:45;;;;;;;;;;;21.40;65.00;;;;;;4157345;28;20304;-49
2023/07/25 10:33:27;;;;;;;;;;;21.40;64.60;;;;;;4157207;28;19932;-48
2023/07/25 10:36:21;;;;;;;;;;;21.40;64.90;;;;;;4177042;28;19950;-53
2023/07/25 10:39:08;;;;;;;;;;;21.50;64.10;;;;;;4164485;28;20062;-49
2023/07/25 10:41:54;;;;;;;;;;;21.40;64.40;;;;;;4140429;28;20388;-51
2023/07/25 10:44:37;;;;;;;;;;;21.50;65.40;;;;;;4166907;28;19977;-52
2023/07/25 10:47:36;;;;;;;;;;;21.40;64.40;;;;;;4171544;28;19997;-48
2023/07/25 10:50:19;;;;;;;;;;;21.40;63.80;;;;;;4151067;28;20076;-49
2023/07/25 10:53:00;;;;;;;;;;;21.40;64.20;;;;;;4175746;28;19936;-49
2023/07/25 10:56:02;;;;;;;;;;;21.40;65.10;;;;;;4143309;28;20083;-52
2023/07/25 10:59:08;;;;;;;;;;;21.40;64.40;;;;;;4166701;28;19932;-48
2023/07/25 11:01:50;;;;;;;;;;;21.40;63.80;;;;;;4143652;28;19947;-45
2023/07/25 11:04:34;;;;;;;;;;;21.40;64.30;;;;;;4155171;28;20067;-47
2023/07/25 11:07:16;;;;;;;;;;;21.40;63.20;;;;;;4157750;28;20391;-45
2023/07/25 11:09:57;;;;;;;;;;;21.50;62.10;;;;;;4173237;28;20413;-47
2023/07/25 11:12:38;;;;;;;;;;;21.40;62.80;;;;;;4157737;28;19932;-46
2023/07/25 11:15:19;;;;;;;;;;;21.40;62.70;;;;;;4171777;28;19935;-46
2023/07/25 11:18:12;;;;;;;;;;;21.40;62.50;;;;;;4160566;28;20414;-50
2023/07/25 11:20:58;;;;;;;;;;;21.40;62.60;;;;;;4164171;28;20062;-53
2023/07/25 11:23:40;;;;;;;;;;;21.40;62.80;;;;;;4171190;28;19931;-47
2023/07/25 11:26:22;;;;;;;;;;;21.40;62.80;;;;;;4154799;28;19974;-50
2023/07/25 11:29:04;;;;;;;;;;;21.40;62.60;;;;;;4149103;28;20264;-45
2023/07/25 11:31:46;;;;;;;;;;;21.40;62.40;;;;;;4171625;28;20045;-48
2023/07/25 11:34:26;;;;;;;;;;;21.40;63.10;;;;;;4148749;28;19940;-50
2023/07/25 11:37:11;;;;;;;;;;;21.30;63.00;;;;;;4171038;28;20312;-48
2023/07/25 11:39:54;;;;;;;;;;;21.40;62.80;;;;;;4171013;28;19931;-46
2023/07/25 11:42:35;;;;;;;;;;;21.40;62.10;;;;;;4169619;28;20018;-47
2023/07/25 11:45:16;;;;;;;;;;;21.30;62.40;;;;;;4166714;28;19935;-56
2023/07/25 11:47:58;;;;;;;;;;;21.40;62.50;;;;;;4180276;28;20383;-53
2023/07/25 11:50:42;;;;;;;;;;;21.30;62.40;;;;;;4158339;28;20291;-55
2023/07/25 11:53:26;;;;;;;;;;;21.30;62.60;;;;;;4169970;28;20287;-54
2023/07/25 11:56:09;;;;;;;;;;;21.30;62.50;;;;;;4170085;28;19935;-55
2023/07/25 11:58:50;;;;;;;;;;;21.30;62.30;;;;;;4158952;28;19932;-56
2023/07/25 12:01:32;;;;;;;;;;;21.30;62.50;;;;;;4167687;28;19967;-55
2023/07/25 12:04:13;;;;;;;;;;;21.30;62.60;;;;;;4160721;28;20337;-53
2023/07/25 12:06:58;;;;;;;;;;;21.30;62.00;;;;;;4186853;28;19932;-54
2023/07/25 12:09:39;;;;;;;;;;;21.30;62.60;;;;;;4153606;28;19936;-52
2023/07/25 12:12:22;;;;;;;;;;;21.30;62.00;;;;;;4158243;28;19932;-55
2023/07/25 12:15:03;;;;;;;;;;;21.30;62.40;;;;;;4148982;28;19931;-55
2023/07/25 12:17:44;;;;;;;;;;;21.30;61.20;;;;;;4168277;28;19944;-53
2023/07/25 12:20:25;;;;;;;;;;;21.30;61.90;;;;;;4185781;28;19936;-55
2023/07/25 12:23:06;;;;;;;;;;;21.40;61.80;;;;;;4183929;28;19981;-52
2023/07/25 12:25:47;;;;;;;;;;;21.40;61.90;;;;;;4163899;28;20015;-54
2023/07/25 12:28:40;;;;;;;;;;;21.40;61.80;;;;;;4154661;28;19939;-48
2023/07/25 12:31:21;;;;;;;;;;;21.40;61.10;;;;;;4153536;28;19932;-54
2023/07/25 12:34:02;;;;;;;;;;;21.40;61.20;;;;;;4154451;28;20402;-50
2023/07/25 12:36:43;;;;;;;;;;;21.50;62.40;;;;;;4154253;28;20399;-53
2023/07/25 12:39:24;;;;;;;;;;;21.40;61.60;;;;;;4153927;28;19936;-50
2023/07/25 12:42:05;;;;;;;;;;;21.50;61.30;;;;;;4143373;28;19997;-52
2023/07/25 12:44:47;;;;;;;;;;;21.50;61.30;;;;;;4170420;28;19935;-51
2023/07/25 12:47:28;;;;;;;;;;;21.50;61.30;;;;;;4168352;28;19947;-51
2023/07/25 12:50:09;;;;;;;;;;;21.50;61.40;;;;;;4167595;28;19964;-47
2023/07/25 12:52:50;;;;;;;;;;;21.50;61.30;;;;;;4170851;28;19931;-48
2023/07/25 12:55:31;;;;;;;;;;;21.50;61.20;;;;;;4148566;28;19936;-46
2023/07/25 12:58:12;;;;;;;;;;;21.50;60.10;;;;;;4185728;28;20382;-46
2023/07/25 13:00:54;;;;;;;;;;;21.60;61.00;;;;;;4166494;28;19932;-46
2023/07/25 13:03:36;;;;;;;;;;;21.60;61.30;;;;;;4170065;28;19936;-53
2023/07/25 13:06:17;;;;;;;;;;;21.60;61.40;;;;;;4169646;28;20017;-51
2023/07/25 13:08:58;;;;;;;;;;;21.60;61.90;;;;;;4156785;28;19935;-55
2023/07/25 13:11:39;;;;;;;;;;;21.60;60.70;;;;;;4169697;28;19932;-55
2023/07/25 13:14:20;;;;;;;;;;;21.70;60.90;;;;;;4153566;28;20014;-51
2023/07/25 13:17:02;;;;;;;;;;;21.60;60.30;;;;;;4152456;28;20007;-55
2023/07/25 13:19:43;;;;;;;;;;;21.60;60.60;;;;;;4141060;28;20041;-54
2023/07/25 13:22:25;;;;;;;;;;;21.60;60.60;;;;;;4167543;28;19936;-55
2023/07/25 13:25:07;;;;;;;;;;;21.60;60.40;;;;;;4157132;28;20058;-56
2023/07/25 13:27:49;;;;;;;;;;;21.60;60.80;;;;;;4153115;28;19948;-55
2023/07/25 13:30:29;;;;;;;;;;;21.60;60.70;;;;;;4142855;28;19956;-50
2023/07/25 13:33:12;;;;;;;;;;;21.60;61.40;;;;;;4154169;28;19966;-54
2023/07/25 13:35:53;;;;;;;;;;;21.60;60.00;;;;;;4165106;28;19932;-55
2023/07/25 13:38:34;;;;;;;;;;;21.60;60.20;;;;;;4153555;28;19943;-53
2023/07/25 13:41:15;;;;;;;;;;;21.60;60.10;;;;;;4169236;28;19939;-56
2023/07/25 13:43:56;;;;;;;;;;;21.60;59.60;;;;;;4156619;28;19932;-58
2023/07/25 13:46:37;;;;;;;;;;;21.60;59.10;;;;;;4140455;28;20097;-55
2023/07/25 13:49:19;;;;;;;;;;;21.60;59.20;;;;;;4162411;28;20295;-53
2023/07/25 13:52:00;;;;;;;;;;;21.60;59.60;;;;;;4185338;28;19939;-49
2023/07/25 13:54:44;;;;;;;;;;;21.60;59.70;;;;;;4185580;28;19935;-54
2023/07/25 13:57:25;;;;;;;;;;;21.60;59.50;;;;;;4185223;28;20054;-56
2023/07/25 14:00:12;;;;;;;;;;;21.60;58.90;;;;;;4185929;28;20442;-55
2023/07/25 14:02:53;;;;;;;;;;;21.60;60.00;;;;;;4186475;28;19931;-51
2023/07/25 14:05:36;;;;;;;;;;;21.60;59.20;;;;;;4167578;28;20630;-54
2023/07/25 14:08:17;;;;;;;;;;;21.60;58.90;;;;;;4151487;28;20002;-48
2023/07/25 14:10:58;;;;;;;;;;;21.60;59.50;;;;;;4156836;28;19935;-44
2023/07/25 14:13:40;;;;;;;;;;;21.60;59.40;;;;;;4161929;28;19932;-47
2023/07/25 14:16:21;;;;;;;;;;;21.60;59.10;;;;;;4175394;28;20052;-47
2023/07/25 14:19:02;;;;;;;;;;;21.60;59.00;;;;;;4172055;28;19951;-49
2023/07/25 14:21:45;;;;;;;;;;;21.60;59.30;;;;;;4155223;28;20399;-47
2023/07/25 14:24:26;;;;;;;;;;;21.60;59.00;;;;;;4188570;28;20668;-48
2023/07/25 14:27:07;;;;;;;;;;;21.60;58.50;;;;;;4165320;28;19931;-47
2023/07/25 14:29:48;;;;;;;;;;;21.50;58.30;;;;;;4170072;28;19947;-45
2023/07/25 14:32:29;;;;;;;;;;;21.50;57.60;;;;;;4149050;28;19936;-45
2023/07/25 14:35:10;;;;;;;;;;;21.50;58.80;;;;;;4170266;28;20074;-48
2023/07/25 14:37:53;;;;;;;;;;;21.50;58.10;;;;;;4143099;28;19931;-44
2023/07/25 14:40:37;;;;;;;;;;;21.50;58.30;;;;;;4169632;28;19986;-48
2023/07/25 14:43:18;;;;;;;;;;;21.50;58.70;;;;;;4186857;28;19931;-45
2023/07/25 14:46:01;;;;;;;;;;;21.50;58.90;;;;;;4172405;28;19936;-48
2023/07/25 14:48:42;;;;;;;;;;;21.50;59.20;;;;;;4152435;28;19932;-44
2023/07/25 14:51:23;;;;;;;;;;;21.50;59.30;;;;;;4152463;28;19951;-46
2023/07/25 14:54:05;;;;;;;;;;;21.50;59.60;;;;;;4172146;28;19936;-46
2023/07/25 14:56:45;;;;;;;;;;;21.50;59.70;;;;;;4145651;28;19936;-46
2023/07/25 14:59:26;;;;;;;;;;;21.50;59.60;;;;;;4154508;28;19936;-51
2023/07/25 15:02:07;;;;;;;;;;;21.50;59.70;;;;;;4172290;28;19936;-49
2023/07/25 15:04:48;;;;;;;;;;;21.50;59.70;;;;;;4155117;28;19936;-45
2023/07/25 15:07:29;;;;;;;;;;;21.50;61.00;;;;;;4153843;28;20264;-50
2023/07/25 15:10:12;;;;;;;;;;;21.50;60.00;;;;;;4142026;28;20039;-45
2023/07/25 15:12:52;;;;;;;;;;;21.50;60.30;;;;;;4155502;28;19932;-46
2023/07/25 15:15:33;;;;;;;;;;;21.50;60.30;;;;;;4126569;28;20091;-48
2023/07/25 15:18:17;;;;;;;;;;;21.50;60.00;;;;;;4155489;28;19963;-45
2023/07/25 15:20:57;;;;;;;;;;;21.50;60.00;;;;;;4155177;28;20010;-48
2023/07/25 15:23:38;;;;;;;;;;;21.50;59.70;;;;;;4142297;28;19994;-45
2023/07/25 15:26:21;;;;;;;;;;;21.50;59.10;;;;;;4155639;28;20006;-49
2023/07/25 15:29:02;;;;;;;;;;;21.50;59.60;;;;;;4170045;28;20474;-44
2023/07/25 15:31:44;;;;;;;;;;;21.50;59.10;;;;;;4171138;28;20394;-46
2023/07/25 15:34:25;;;;;;;;;;;21.50;59.60;;;;;;4170367;28;19935;-46
2023/07/25 15:37:06;;;;;;;;;;;21.50;60.50;;;;;;4159033;28;20031;-50
2023/07/25 15:39:48;;;;;;;;;;;21.50;59.80;;;;;;4163330;28;19932;-47